B12G9 ZSAM-VMMC
Flight info
| Callsign | B12G9 |
|---|---|
| Flight time | N/A |
| Altitude | 17700 |
| Route | NUSPA W597 IKATA A470 BEBEM A470 DOTMI DCT SAMMI J101 SMT |
| Aircraft | B60T/L-SDFGRY/C |
Departure
| Time | 2026-04-28 14:43 |
|---|---|
| Airport | Xiamen Gaoqi International Airport (ZSAM) |
Arrival
| Time | N/A |
|---|---|
| Airport | Macau International Airport (VMMC) |
| Time | Latitude | Longitude | Altitude | Speed | Heading |
|---|---|---|---|---|---|
| 2026-04-28 14:20 | 24.54215 | 118.12954 | 39 ft | 0 kts | 141° |
| 2026-04-28 14:34 | 24.54202 | 118.12965 | 39 ft | 9 kts | 141° |
| 2026-04-28 14:35 | 24.54146 | 118.12945 | 39 ft | 15 kts | 235° |
| 2026-04-28 14:35 | 24.54116 | 118.12861 | 39 ft | 12 kts | 305° |
| 2026-04-28 14:35 | 24.54177 | 118.12807 | 39 ft | 10 kts | 323° |
| 2026-04-28 14:35 | 24.54188 | 118.12741 | 39 ft | 14 kts | 232° |
| 2026-04-28 14:36 | 24.54115 | 118.12640 | 39 ft | 18 kts | 232° |
| 2026-04-28 14:36 | 24.54035 | 118.12528 | 39 ft | 20 kts | 232° |
| 2026-04-28 14:36 | 24.53950 | 118.12408 | 39 ft | 19 kts | 232° |
| 2026-04-28 14:36 | 24.53872 | 118.12299 | 39 ft | 18 kts | 232° |
| 2026-04-28 14:37 | 24.53797 | 118.12195 | 39 ft | 17 kts | 231° |
| 2026-04-28 14:37 | 24.53724 | 118.12092 | 39 ft | 17 kts | 232° |
| 2026-04-28 14:37 | 24.53649 | 118.11987 | 39 ft | 18 kts | 232° |
| 2026-04-28 14:37 | 24.53572 | 118.11880 | 39 ft | 18 kts | 232° |
| 2026-04-28 14:38 | 24.53493 | 118.11769 | 39 ft | 19 kts | 232° |
| 2026-04-28 14:38 | 24.53426 | 118.11676 | 39 ft | 13 kts | 232° |
| 2026-04-28 14:38 | 24.53397 | 118.11592 | 39 ft | 5 kts | 285° |
| 2026-04-28 14:38 | 24.53397 | 118.11591 | 39 ft | 0 kts | 285° |
| 2026-04-28 14:41 | 24.53397 | 118.11590 | 39 ft | 1 kts | 284° |
| 2026-04-28 14:41 | 24.53407 | 118.11551 | 39 ft | 11 kts | 285° |
| 2026-04-28 14:41 | 24.53469 | 118.11476 | 39 ft | 15 kts | 359° |
| 2026-04-28 14:42 | 24.53522 | 118.11516 | 39 ft | 4 kts | 52° |
| 2026-04-28 14:42 | 24.53524 | 118.11518 | 39 ft | 0 kts | 52° |
| 2026-04-28 14:42 | 24.53605 | 118.11632 | 39 ft | 57 kts | 52° |
| 2026-04-28 14:42 | 24.54023 | 118.12212 | 95 ft | 126 kts | 51° |
| 2026-04-28 14:43 | 24.54626 | 118.13051 | 609 ft | 148 kts | 54° |
| 2026-04-28 14:43 | 24.55281 | 118.13993 | 1211 ft | 162 kts | 53° |
| 2026-04-28 14:43 | 24.55992 | 118.14984 | 1843 ft | 168 kts | 54° |
| 2026-04-28 14:43 | 24.56721 | 118.16002 | 2468 ft | 172 kts | 56° |
| 2026-04-28 14:44 | 24.57465 | 118.17043 | 3108 ft | 174 kts | 55° |
| 2026-04-28 14:44 | 24.58214 | 118.18091 | 3741 ft | 175 kts | 55° |
| 2026-04-28 14:44 | 24.58963 | 118.19143 | 4383 ft | 175 kts | 55° |
| 2026-04-28 14:44 | 24.59711 | 118.20192 | 5022 ft | 174 kts | 55° |
| 2026-04-28 14:45 | 24.60459 | 118.21242 | 5638 ft | 175 kts | 54° |
| 2026-04-28 14:45 | 24.61234 | 118.22330 | 5897 ft | 187 kts | 54° |
| 2026-04-28 14:45 | 24.61845 | 118.23584 | 5904 ft | 187 kts | 84° |
| 2026-04-28 14:45 | 24.61780 | 118.24990 | 5909 ft | 185 kts | 103° |
| 2026-04-28 14:46 | 24.61574 | 118.26389 | 5908 ft | 186 kts | 102° |
| 2026-04-28 14:46 | 24.61404 | 118.27812 | 5902 ft | 189 kts | 101° |
| 2026-04-28 14:46 | 24.61245 | 118.29256 | 5902 ft | 191 kts | 101° |
| 2026-04-28 14:46 | 24.61085 | 118.30709 | 5903 ft | 192 kts | 101° |
| 2026-04-28 14:47 | 24.60767 | 118.32112 | 5897 ft | 187 kts | 124° |
| 2026-04-28 14:47 | 24.59820 | 118.32972 | 5902 ft | 180 kts | 165° |
| 2026-04-28 14:47 | 24.58581 | 118.32944 | 5904 ft | 178 kts | 200° |
| 2026-04-28 14:47 | 24.57642 | 118.32116 | 5906 ft | 180 kts | 236° |
| 2026-04-28 14:48 | 24.57284 | 118.30785 | 5901 ft | 184 kts | 256° |
| 2026-04-28 14:48 | 24.56927 | 118.29445 | 5904 ft | 182 kts | 242° |
| 2026-04-28 14:48 | 24.56269 | 118.28267 | 5902 ft | 181 kts | 232° |
| 2026-04-28 14:48 | 24.55501 | 118.27153 | 5905 ft | 181 kts | 230° |
| 2026-04-28 14:49 | 24.54718 | 118.26059 | 5905 ft | 185 kts | 230° |
| 2026-04-28 14:49 | 24.53917 | 118.24934 | 5908 ft | 189 kts | 230° |
| 2026-04-28 14:49 | 24.53098 | 118.23781 | 5911 ft | 193 kts | 230° |
| 2026-04-28 14:49 | 24.52284 | 118.22633 | 5910 ft | 193 kts | 230° |
| 2026-04-28 14:50 | 24.51430 | 118.21431 | 5980 ft | 204 kts | 230° |
| 2026-04-28 14:50 | 24.50553 | 118.20193 | 6266 ft | 205 kts | 231° |
| 2026-04-28 14:50 | 24.49689 | 118.18974 | 6627 ft | 201 kts | 231° |
| 2026-04-28 14:50 | 24.48828 | 118.17760 | 6983 ft | 201 kts | 231° |
| 2026-04-28 14:51 | 24.47973 | 118.16553 | 7339 ft | 200 kts | 231° |
| 2026-04-28 14:51 | 24.47123 | 118.15355 | 7682 ft | 199 kts | 231° |
| 2026-04-28 14:51 | 24.46273 | 118.14156 | 7979 ft | 198 kts | 231° |
| 2026-04-28 14:51 | 24.45427 | 118.12964 | 8315 ft | 198 kts | 230° |
| 2026-04-28 14:52 | 24.44584 | 118.11779 | 8685 ft | 197 kts | 231° |
| 2026-04-28 14:52 | 24.43742 | 118.10593 | 9051 ft | 196 kts | 231° |
| 2026-04-28 14:52 | 24.42910 | 118.09422 | 9411 ft | 194 kts | 231° |
| 2026-04-28 14:52 | 24.42084 | 118.08259 | 9759 ft | 192 kts | 231° |
| 2026-04-28 14:53 | 24.41264 | 118.07106 | 10080 ft | 191 kts | 231° |
| 2026-04-28 14:53 | 24.40447 | 118.05957 | 10378 ft | 191 kts | 231° |
| 2026-04-28 14:53 | 24.39632 | 118.04809 | 10692 ft | 191 kts | 231° |
| 2026-04-28 14:53 | 24.38818 | 118.03664 | 10998 ft | 190 kts | 231° |
| 2026-04-28 14:54 | 24.38007 | 118.02525 | 11310 ft | 189 kts | 231° |
| 2026-04-28 14:54 | 24.37197 | 118.01385 | 11620 ft | 189 kts | 231° |
| 2026-04-28 14:54 | 24.36388 | 118.00248 | 11926 ft | 189 kts | 232° |
| 2026-04-28 14:54 | 24.35578 | 117.99111 | 12240 ft | 189 kts | 232° |
| 2026-04-28 14:55 | 24.34771 | 117.97977 | 12554 ft | 189 kts | 232° |
| 2026-04-28 14:55 | 24.33963 | 117.96843 | 12868 ft | 189 kts | 232° |
| 2026-04-28 14:55 | 24.33156 | 117.95711 | 13188 ft | 188 kts | 232° |
| 2026-04-28 14:55 | 24.32351 | 117.94580 | 13507 ft | 188 kts | 232° |
| 2026-04-28 14:56 | 24.31547 | 117.93453 | 13820 ft | 188 kts | 232° |
| 2026-04-28 14:56 | 24.30743 | 117.92326 | 14084 ft | 187 kts | 232° |
| 2026-04-28 14:56 | 24.29941 | 117.91202 | 14368 ft | 187 kts | 232° |
| 2026-04-28 14:56 | 24.29141 | 117.90080 | 14644 ft | 187 kts | 232° |
| 2026-04-28 14:57 | 24.28343 | 117.88962 | 14907 ft | 186 kts | 232° |
| 2026-04-28 14:57 | 24.27813 | 117.88219 | 15091 ft | 186 kts | 232° |
| 2026-04-28 14:57 | 24.26746 | 117.86724 | 15451 ft | 186 kts | 232° |
| 2026-04-28 14:57 | 24.25948 | 117.85606 | 15731 ft | 186 kts | 232° |
| 2026-04-28 14:58 | 24.25150 | 117.84489 | 15997 ft | 186 kts | 232° |
| 2026-04-28 14:58 | 24.24294 | 117.83426 | 16252 ft | 186 kts | 225° |
| 2026-04-28 14:58 | 24.23360 | 117.82442 | 16516 ft | 186 kts | 226° |
| 2026-04-28 14:58 | 24.22436 | 117.81449 | 16794 ft | 186 kts | 226° |
| 2026-04-28 14:59 | 24.21512 | 117.80454 | 17074 ft | 187 kts | 226° |
| 2026-04-28 14:59 | 24.20585 | 117.79458 | 17342 ft | 187 kts | 226° |
| 2026-04-28 14:59 | 24.19655 | 117.78459 | 17617 ft | 187 kts | 226° |
| 2026-04-28 14:59 | 24.18699 | 117.77432 | 17652 ft | 196 kts | 226° |
| 2026-04-28 15:00 | 24.17706 | 117.76363 | 17657 ft | 204 kts | 226° |
| 2026-04-28 15:00 | 24.16682 | 117.75263 | 17654 ft | 209 kts | 226° |
| 2026-04-28 15:00 | 24.15637 | 117.74142 | 17656 ft | 212 kts | 226° |
| 2026-04-28 15:00 | 24.14576 | 117.73004 | 17653 ft | 215 kts | 226° |
| 2026-04-28 15:01 | 24.13508 | 117.71857 | 17655 ft | 216 kts | 226° |
| 2026-04-28 15:01 | 24.12431 | 117.70703 | 17657 ft | 217 kts | 226° |
| 2026-04-28 15:01 | 24.11352 | 117.69546 | 17662 ft | 217 kts | 226° |
| 2026-04-28 15:01 | 24.10271 | 117.68389 | 17655 ft | 218 kts | 226° |
| 2026-04-28 15:02 | 24.09189 | 117.67229 | 17660 ft | 218 kts | 226° |
| 2026-04-28 15:02 | 24.08108 | 117.66069 | 17656 ft | 218 kts | 226° |
| 2026-04-28 15:02 | 24.07390 | 117.65300 | 17659 ft | 218 kts | 226° |
| 2026-04-28 15:02 | 24.06305 | 117.64139 | 17656 ft | 219 kts | 226° |
| 2026-04-28 15:03 | 24.05210 | 117.62966 | 17657 ft | 222 kts | 226° |
| 2026-04-28 15:03 | 24.04105 | 117.61781 | 17663 ft | 224 kts | 226° |
| 2026-04-28 15:03 | 24.02983 | 117.60576 | 17659 ft | 226 kts | 226° |
| 2026-04-28 15:03 | 24.01859 | 117.59370 | 17659 ft | 227 kts | 226° |
| 2026-04-28 15:04 | 24.00729 | 117.58158 | 17662 ft | 227 kts | 226° |
| 2026-04-28 15:04 | 23.99597 | 117.56947 | 17658 ft | 228 kts | 226° |
| 2026-04-28 15:04 | 23.98464 | 117.55730 | 17656 ft | 229 kts | 226° |
| 2026-04-28 15:04 | 23.97327 | 117.54513 | 17660 ft | 229 kts | 226° |
| 2026-04-28 15:05 | 23.96190 | 117.53295 | 17656 ft | 229 kts | 226° |
| 2026-04-28 15:05 | 23.95051 | 117.52076 | 17657 ft | 229 kts | 226° |
| 2026-04-28 15:05 | 23.93916 | 117.50861 | 17656 ft | 229 kts | 226° |
| 2026-04-28 15:05 | 23.92776 | 117.49639 | 17658 ft | 229 kts | 226° |
| 2026-04-28 15:06 | 23.91636 | 117.48419 | 17659 ft | 229 kts | 226° |
| 2026-04-28 15:06 | 23.90499 | 117.47204 | 17656 ft | 229 kts | 226° |
| 2026-04-28 15:06 | 23.89359 | 117.45984 | 17654 ft | 229 kts | 226° |
| 2026-04-28 15:06 | 23.88218 | 117.44764 | 17664 ft | 229 kts | 226° |
| 2026-04-28 15:07 | 23.87081 | 117.43549 | 17655 ft | 229 kts | 226° |
| 2026-04-28 15:07 | 23.85941 | 117.42330 | 17653 ft | 229 kts | 226° |
| 2026-04-28 15:07 | 23.84804 | 117.41108 | 17659 ft | 229 kts | 228° |
| 2026-04-28 15:07 | 23.83938 | 117.39661 | 17661 ft | 228 kts | 246° |
| 2026-04-28 15:08 | 23.83448 | 117.38012 | 17663 ft | 229 kts | 252° |
| 2026-04-28 15:08 | 23.82979 | 117.36348 | 17657 ft | 229 kts | 251° |
| 2026-04-28 15:08 | 23.82504 | 117.34687 | 17665 ft | 229 kts | 251° |
| 2026-04-28 15:08 | 23.82032 | 117.33025 | 17661 ft | 230 kts | 252° |
| 2026-04-28 15:09 | 23.81561 | 117.31362 | 17661 ft | 229 kts | 251° |
| 2026-04-28 15:09 | 23.81089 | 117.29698 | 17661 ft | 229 kts | 251° |
| 2026-04-28 15:09 | 23.80617 | 117.28037 | 17654 ft | 229 kts | 251° |
| 2026-04-28 15:09 | 23.80145 | 117.26377 | 17657 ft | 229 kts | 251° |
| 2026-04-28 15:10 | 23.79673 | 117.24717 | 17658 ft | 229 kts | 251° |
| 2026-04-28 15:10 | 23.79201 | 117.23058 | 17660 ft | 228 kts | 251° |
| 2026-04-28 15:10 | 23.78736 | 117.21422 | 17659 ft | 229 kts | 251° |
| 2026-04-28 15:10 | 23.78264 | 117.19768 | 17656 ft | 228 kts | 251° |
| 2026-04-28 15:11 | 23.77792 | 117.18111 | 17658 ft | 229 kts | 251° |
| 2026-04-28 15:11 | 23.77319 | 117.16451 | 17653 ft | 229 kts | 251° |
| 2026-04-28 15:11 | 23.76846 | 117.14792 | 17651 ft | 229 kts | 251° |
| 2026-04-28 15:11 | 23.76151 | 117.13246 | 17650 ft | 228 kts | 234° |
| 2026-04-28 15:12 | 23.75080 | 117.11970 | 17651 ft | 228 kts | 227° |
| 2026-04-28 15:12 | 23.73974 | 117.10721 | 17656 ft | 229 kts | 228° |
| 2026-04-28 15:12 | 23.72878 | 117.09467 | 17652 ft | 228 kts | 228° |
| 2026-04-28 15:12 | 23.71780 | 117.08213 | 17654 ft | 229 kts | 227° |
| 2026-04-28 15:13 | 23.70682 | 117.06962 | 17655 ft | 228 kts | 227° |
| 2026-04-28 15:13 | 23.69583 | 117.05711 | 17654 ft | 228 kts | 227° |
| 2026-04-28 15:13 | 23.68484 | 117.04458 | 17654 ft | 229 kts | 227° |
| 2026-04-28 15:13 | 23.67382 | 117.03204 | 17656 ft | 229 kts | 227° |
| 2026-04-28 15:14 | 23.66281 | 117.01950 | 17652 ft | 229 kts | 227° |
| 2026-04-28 15:14 | 23.65179 | 117.00696 | 17649 ft | 229 kts | 227° |
| 2026-04-28 15:14 | 23.64077 | 116.99442 | 17646 ft | 229 kts | 227° |
| 2026-04-28 15:14 | 23.62976 | 116.98189 | 17645 ft | 229 kts | 227° |
| 2026-04-28 15:15 | 23.61875 | 116.96937 | 17647 ft | 229 kts | 228° |
| 2026-04-28 15:15 | 23.60774 | 116.95685 | 17644 ft | 229 kts | 227° |
| 2026-04-28 15:15 | 23.59673 | 116.94433 | 17648 ft | 229 kts | 227° |
| 2026-04-28 15:15 | 23.58573 | 116.93184 | 17650 ft | 229 kts | 227° |
| 2026-04-28 15:16 | 23.57471 | 116.91932 | 17644 ft | 229 kts | 227° |
| 2026-04-28 15:16 | 23.56370 | 116.90681 | 17643 ft | 229 kts | 227° |
| 2026-04-28 15:16 | 23.55271 | 116.89434 | 17644 ft | 228 kts | 227° |
| 2026-04-28 15:16 | 23.54170 | 116.88184 | 17643 ft | 229 kts | 227° |
| 2026-04-28 15:17 | 23.53068 | 116.86933 | 17638 ft | 228 kts | 227° |
| 2026-04-28 15:17 | 23.51967 | 116.85684 | 17637 ft | 228 kts | 227° |
| 2026-04-28 15:17 | 23.50867 | 116.84435 | 17643 ft | 229 kts | 227° |
| 2026-04-28 15:17 | 23.49768 | 116.83189 | 17636 ft | 229 kts | 227° |
| 2026-04-28 15:18 | 23.48666 | 116.81940 | 17637 ft | 229 kts | 227° |
| 2026-04-28 15:18 | 23.47562 | 116.80689 | 17637 ft | 229 kts | 227° |
| 2026-04-28 15:18 | 23.46460 | 116.79440 | 17635 ft | 229 kts | 227° |
| 2026-04-28 15:18 | 23.45362 | 116.78196 | 17639 ft | 228 kts | 227° |
| 2026-04-28 15:19 | 23.44258 | 116.76946 | 17636 ft | 228 kts | 227° |
| 2026-04-28 15:19 | 23.43042 | 116.75836 | 17635 ft | 229 kts | 219° |
| 2026-04-28 15:19 | 23.41761 | 116.74794 | 17631 ft | 230 kts | 219° |
| 2026-04-28 15:19 | 23.40491 | 116.73739 | 17632 ft | 230 kts | 220° |
| 2026-04-28 15:20 | 23.39242 | 116.72695 | 17633 ft | 230 kts | 219° |
| 2026-04-28 15:20 | 23.37973 | 116.71638 | 17633 ft | 230 kts | 219° |
| 2026-04-28 15:20 | 23.36703 | 116.70583 | 17633 ft | 230 kts | 219° |
| 2026-04-28 15:20 | 23.35434 | 116.69527 | 17630 ft | 230 kts | 219° |
| 2026-04-28 15:21 | 23.34165 | 116.68472 | 17629 ft | 230 kts | 219° |
| 2026-04-28 15:21 | 23.32897 | 116.67419 | 17638 ft | 229 kts | 219° |
| 2026-04-28 15:21 | 23.31630 | 116.66367 | 17631 ft | 228 kts | 219° |
| 2026-04-28 15:21 | 23.30368 | 116.65318 | 17629 ft | 229 kts | 219° |
| 2026-04-28 15:22 | 23.29099 | 116.64265 | 17630 ft | 229 kts | 220° |
| 2026-04-28 15:22 | 23.27828 | 116.63209 | 17634 ft | 230 kts | 220° |
| 2026-04-28 15:22 | 23.26555 | 116.62153 | 17631 ft | 230 kts | 219° |
| 2026-04-28 15:22 | 23.25282 | 116.61096 | 17630 ft | 231 kts | 219° |
| 2026-04-28 15:23 | 23.24008 | 116.60039 | 17635 ft | 231 kts | 219° |
| 2026-04-28 15:23 | 23.22732 | 116.58981 | 17631 ft | 231 kts | 219° |
| 2026-04-28 15:23 | 23.21456 | 116.57923 | 17629 ft | 230 kts | 219° |
| 2026-04-28 15:23 | 23.20183 | 116.56868 | 17628 ft | 230 kts | 219° |
| 2026-04-28 15:24 | 23.18908 | 116.55811 | 17628 ft | 230 kts | 219° |
| 2026-04-28 15:24 | 23.17636 | 116.54757 | 17628 ft | 230 kts | 219° |
| 2026-04-28 15:24 | 23.16362 | 116.53701 | 17629 ft | 230 kts | 219° |
| 2026-04-28 15:24 | 23.15088 | 116.52646 | 17627 ft | 230 kts | 219° |
| 2026-04-28 15:25 | 23.13812 | 116.51590 | 17627 ft | 230 kts | 219° |
| 2026-04-28 15:25 | 23.12540 | 116.50537 | 17634 ft | 230 kts | 219° |
| 2026-04-28 15:25 | 23.11269 | 116.49485 | 17634 ft | 230 kts | 219° |
| 2026-04-28 15:25 | 23.09995 | 116.48431 | 17631 ft | 230 kts | 219° |
| 2026-04-28 15:26 | 23.08723 | 116.47378 | 17637 ft | 231 kts | 219° |
| 2026-04-28 15:26 | 23.07446 | 116.46323 | 17631 ft | 231 kts | 219° |
| 2026-04-28 15:26 | 23.06176 | 116.45273 | 17707 ft | 228 kts | 219° |
| 2026-04-28 15:26 | 23.04924 | 116.44239 | 17806 ft | 225 kts | 219° |
| 2026-04-28 15:27 | 23.03683 | 116.43214 | 17900 ft | 223 kts | 219° |
| 2026-04-28 15:27 | 23.02840 | 116.42517 | 17927 ft | 224 kts | 219° |
| 2026-04-28 15:27 | 23.01598 | 116.41488 | 17932 ft | 224 kts | 219° |
| 2026-04-28 15:27 | 23.00348 | 116.40456 | 17936 ft | 227 kts | 219° |
| 2026-04-28 15:28 | 22.99104 | 116.39429 | 17936 ft | 228 kts | 219° |
| 2026-04-28 15:28 | 22.97821 | 116.38372 | 17936 ft | 229 kts | 219° |
| 2026-04-28 15:28 | 22.96552 | 116.37325 | 17937 ft | 229 kts | 219° |
| 2026-04-28 15:28 | 22.95296 | 116.36288 | 17937 ft | 230 kts | 219° |
| 2026-04-28 15:29 | 22.94006 | 116.35221 | 17941 ft | 230 kts | 219° |
| 2026-04-28 15:29 | 22.92753 | 116.34176 | 17937 ft | 230 kts | 220° |
| 2026-04-28 15:29 | 22.91487 | 116.33123 | 17940 ft | 230 kts | 219° |
| 2026-04-28 15:29 | 22.90216 | 116.32067 | 17941 ft | 229 kts | 220° |
| 2026-04-28 15:30 | 22.88949 | 116.31015 | 17940 ft | 230 kts | 219° |
| 2026-04-28 15:30 | 22.87679 | 116.29960 | 17938 ft | 230 kts | 220° |
| 2026-04-28 15:30 | 22.86409 | 116.28906 | 17939 ft | 230 kts | 219° |
| 2026-04-28 15:30 | 22.85138 | 116.27850 | 17938 ft | 230 kts | 220° |
| 2026-04-28 15:31 | 22.83866 | 116.26795 | 17935 ft | 230 kts | 220° |
| 2026-04-28 15:31 | 22.82601 | 116.25745 | 17937 ft | 230 kts | 219° |
| 2026-04-28 15:31 | 22.81326 | 116.24688 | 17936 ft | 230 kts | 220° |
| 2026-04-28 15:31 | 22.80053 | 116.23632 | 17935 ft | 230 kts | 220° |
| 2026-04-28 15:32 | 22.78783 | 116.22579 | 17936 ft | 230 kts | 219° |
| 2026-04-28 15:32 | 22.77941 | 116.21881 | 17936 ft | 230 kts | 220° |
| 2026-04-28 15:32 | 22.76238 | 116.20470 | 17935 ft | 231 kts | 219° |
| 2026-04-28 15:32 | 22.74962 | 116.19413 | 17935 ft | 231 kts | 219° |
| 2026-04-28 15:33 | 22.73687 | 116.18357 | 17936 ft | 231 kts | 220° |
| 2026-04-28 15:33 | 22.72414 | 116.17302 | 17935 ft | 231 kts | 219° |
| 2026-04-28 15:33 | 22.71138 | 116.16246 | 17934 ft | 231 kts | 219° |
| 2026-04-28 15:33 | 22.69859 | 116.15195 | 17936 ft | 231 kts | 219° |
| 2026-04-28 15:34 | 22.68581 | 116.14146 | 17935 ft | 231 kts | 219° |
| 2026-04-28 15:34 | 22.67303 | 116.13094 | 17933 ft | 231 kts | 219° |
| 2026-04-28 15:34 | 22.66023 | 116.12041 | 17934 ft | 231 kts | 219° |
| 2026-04-28 15:34 | 22.64748 | 116.10994 | 17932 ft | 231 kts | 219° |
| 2026-04-28 15:35 | 22.63469 | 116.09942 | 17934 ft | 231 kts | 219° |
| 2026-04-28 15:35 | 22.60915 | 116.07843 | 17933 ft | 231 kts | 219° |
| 2026-04-28 15:35 | 22.59635 | 116.06792 | 17933 ft | 231 kts | 219° |
| 2026-04-28 15:36 | 22.58357 | 116.05743 | 17933 ft | 231 kts | 219° |
| 2026-04-28 15:36 | 22.57081 | 116.04695 | 17934 ft | 231 kts | 220° |
| 2026-04-28 15:36 | 22.55800 | 116.03644 | 17931 ft | 231 kts | 220° |
| 2026-04-28 15:36 | 22.54521 | 116.02594 | 17936 ft | 231 kts | 220° |
| 2026-04-28 15:37 | 22.53451 | 116.01717 | 17930 ft | 232 kts | 220° |
| 2026-04-28 15:37 | 22.52150 | 116.00649 | 17935 ft | 236 kts | 220° |
| 2026-04-28 15:37 | 22.50914 | 115.99635 | 17935 ft | 238 kts | 220° |
| 2026-04-28 15:37 | 22.50017 | 115.98899 | 17937 ft | 239 kts | 220° |
| 2026-04-28 15:38 | 22.48263 | 115.97445 | 17941 ft | 240 kts | 223° |
| 2026-04-28 15:38 | 22.47215 | 115.96055 | 17942 ft | 239 kts | 241° |
| 2026-04-28 15:38 | 22.46622 | 115.94383 | 17943 ft | 240 kts | 257° |
| 2026-04-28 15:38 | 22.46466 | 115.92581 | 17946 ft | 241 kts | 265° |
| 2026-04-28 15:39 | 22.46362 | 115.90774 | 17943 ft | 241 kts | 264° |
| 2026-04-28 15:39 | 22.46250 | 115.88962 | 17945 ft | 242 kts | 265° |
| 2026-04-28 15:39 | 22.46142 | 115.87148 | 17949 ft | 242 kts | 265° |